sensor_id;sensor_type;location;lat;lon;timestamp;P1;durP1;ratioP1;P2;durP2;ratioP2
75289;SDS011;63883;48.996;20.804;2023-03-20T00:01:34;15.02;;;8.00;;
75289;SDS011;63883;48.996;20.804;2023-03-20T00:04:01;15.98;;;8.23;;
75289;SDS011;63883;48.996;20.804;2023-03-20T00:06:27;16.88;;;8.40;;
75289;SDS011;63883;48.996;20.804;2023-03-20T00:08:56;16.52;;;8.45;;
75289;SDS011;63883;48.996;20.804;2023-03-20T00:13:53;14.52;;;7.70;;
75289;SDS011;63883;48.996;20.804;2023-03-20T00:16:21;13.30;;;7.35;;
75289;SDS011;63883;48.996;20.804;2023-03-20T00:18:48;14.27;;;7.35;;
75289;SDS011;63883;48.996;20.804;2023-03-20T00:21:15;14.10;;;7.50;;
75289;SDS011;63883;48.996;20.804;2023-03-20T00:23:41;12.52;;;6.88;;
75289;SDS011;63883;48.996;20.804;2023-03-20T00:26:11;15.07;;;7.45;;
75289;SDS011;63883;48.996;20.804;2023-03-20T00:28:42;12.85;;;7.20;;
75289;SDS011;63883;48.996;20.804;2023-03-20T00:31:28;15.45;;;7.97;;
75289;SDS011;63883;48.996;20.804;2023-03-20T00:33:57;14.55;;;8.07;;
75289;SDS011;63883;48.996;20.804;2023-03-20T00:36:29;15.13;;;8.10;;
75289;SDS011;63883;48.996;20.804;2023-03-20T00:38:55;17.63;;;7.97;;
75289;SDS011;63883;48.996;20.804;2023-03-20T00:41:32;14.55;;;7.40;;
75289;SDS011;63883;48.996;20.804;2023-03-20T00:44:03;10.75;;;6.07;;
75289;SDS011;63883;48.996;20.804;2023-03-20T00:46:41;14.75;;;7.20;;
75289;SDS011;63883;48.996;20.804;2023-03-20T00:49:10;11.18;;;6.57;;
75289;SDS011;63883;48.996;20.804;2023-03-20T00:51:36;12.88;;;7.05;;
75289;SDS011;63883;48.996;20.804;2023-03-20T00:54:10;12.68;;;6.63;;
75289;SDS011;63883;48.996;20.804;2023-03-20T00:56:44;11.20;;;6.60;;
75289;SDS011;63883;48.996;20.804;2023-03-20T00:59:20;13.43;;;7.28;;
75289;SDS011;63883;48.996;20.804;2023-03-20T01:01:48;12.77;;;6.90;;
75289;SDS011;63883;48.996;20.804;2023-03-20T01:04:15;14.13;;;7.13;;
75289;SDS011;63883;48.996;20.804;2023-03-20T01:06:44;12.63;;;6.93;;
75289;SDS011;63883;48.996;20.804;2023-03-20T01:09:10;14.60;;;7.25;;
75289;SDS011;63883;48.996;20.804;2023-03-20T01:11:36;12.77;;;6.70;;
75289;SDS011;63883;48.996;20.804;2023-03-20T01:14:04;16.90;;;7.43;;
75289;SDS011;63883;48.996;20.804;2023-03-20T01:16:31;13.35;;;6.93;;
75289;SDS011;63883;48.996;20.804;2023-03-20T01:18:56;12.73;;;6.53;;
75289;SDS011;63883;48.996;20.804;2023-03-20T01:21:22;13.55;;;6.88;;
75289;SDS011;63883;48.996;20.804;2023-03-20T01:23:48;13.10;;;6.97;;
75289;SDS011;63883;48.996;20.804;2023-03-20T01:28:43;13.90;;;7.10;;
75289;SDS011;63883;48.996;20.804;2023-03-20T01:31:09;14.90;;;6.50;;
75289;SDS011;63883;48.996;20.804;2023-03-20T01:33:34;12.80;;;6.32;;
75289;SDS011;63883;48.996;20.804;2023-03-20T01:36:01;12.65;;;6.00;;
75289;SDS011;63883;48.996;20.804;2023-03-20T01:38:27;13.13;;;6.13;;
75289;SDS011;63883;48.996;20.804;2023-03-20T01:40:55;14.07;;;6.57;;
75289;SDS011;63883;48.996;20.804;2023-03-20T01:43:36;12.10;;;6.65;;
75289;SDS011;63883;48.996;20.804;2023-03-20T01:51:16;14.38;;;6.55;;
75289;SDS011;63883;48.996;20.804;2023-03-20T01:53:47;14.30;;;6.70;;
75289;SDS011;63883;48.996;20.804;2023-03-20T01:56:16;14.57;;;6.88;;
75289;SDS011;63883;48.996;20.804;2023-03-20T01:58:45;14.68;;;7.00;;
75289;SDS011;63883;48.996;20.804;2023-03-20T02:01:14;14.93;;;6.88;;
75289;SDS011;63883;48.996;20.804;2023-03-20T02:03:42;14.88;;;6.68;;
75289;SDS011;63883;48.996;20.804;2023-03-20T02:06:10;13.82;;;6.60;;
75289;SDS011;63883;48.996;20.804;2023-03-20T02:08:39;13.52;;;6.85;;
75289;SDS011;63883;48.996;20.804;2023-03-20T02:11:10;14.70;;;6.65;;
75289;SDS011;63883;48.996;20.804;2023-03-20T02:13:37;16.08;;;7.75;;
75289;SDS011;63883;48.996;20.804;2023-03-20T02:16:05;14.00;;;6.82;;
75289;SDS011;63883;48.996;20.804;2023-03-20T02:18:35;14.32;;;6.85;;
75289;SDS011;63883;48.996;20.804;2023-03-20T02:34:15;14.88;;;7.07;;
75289;SDS011;63883;48.996;20.804;2023-03-20T02:39:56;13.93;;;7.07;;
75289;SDS011;63883;48.996;20.804;2023-03-20T02:45:26;13.80;;;6.35;;
75289;SDS011;63883;48.996;20.804;2023-03-20T02:47:59;15.23;;;7.32;;
75289;SDS011;63883;48.996;20.804;2023-03-20T02:50:43;12.63;;;7.13;;
75289;SDS011;63883;48.996;20.804;2023-03-20T03:01:44;12.15;;;6.53;;
75289;SDS011;63883;48.996;20.804;2023-03-20T03:04:21;14.75;;;6.40;;
75289;SDS011;63883;48.996;20.804;2023-03-20T03:06:51;12.82;;;6.00;;
75289;SDS011;63883;48.996;20.804;2023-03-20T03:09:24;14.02;;;6.43;;
75289;SDS011;63883;48.996;20.804;2023-03-20T03:14:38;12.70;;;6.88;;
75289;SDS011;63883;48.996;20.804;2023-03-20T03:17:07;14.65;;;7.03;;
75289;SDS011;63883;48.996;20.804;2023-03-20T03:19:35;14.00;;;6.82;;
75289;SDS011;63883;48.996;20.804;2023-03-20T03:22:06;14.98;;;7.03;;
75289;SDS011;63883;48.996;20.804;2023-03-20T03:24:36;13.60;;;7.25;;
75289;SDS011;63883;48.996;20.804;2023-03-20T03:27:06;12.80;;;6.82;;
75289;SDS011;63883;48.996;20.804;2023-03-20T03:29:38;15.27;;;6.88;;
75289;SDS011;63883;48.996;20.804;2023-03-20T03:32:05;13.40;;;7.40;;
75289;SDS011;63883;48.996;20.804;2023-03-20T03:34:44;13.82;;;6.60;;
75289;SDS011;63883;48.996;20.804;2023-03-20T03:37:26;15.05;;;7.07;;
75289;SDS011;63883;48.996;20.804;2023-03-20T03:42:34;10.88;;;6.00;;
75289;SDS011;63883;48.996;20.804;2023-03-20T03:45:04;11.38;;;6.38;;
75289;SDS011;63883;48.996;20.804;2023-03-20T03:47:47;13.27;;;6.72;;
75289;SDS011;63883;48.996;20.804;2023-03-20T03:50:20;14.27;;;7.00;;
75289;SDS011;63883;48.996;20.804;2023-03-20T03:52:51;14.43;;;7.88;;
75289;SDS011;63883;48.996;20.804;2023-03-20T03:55:21;13.55;;;7.60;;
75289;SDS011;63883;48.996;20.804;2023-03-20T03:57:58;17.58;;;8.38;;
75289;SDS011;63883;48.996;20.804;2023-03-20T04:00:29;15.73;;;6.97;;
75289;SDS011;63883;48.996;20.804;2023-03-20T04:02:58;15.25;;;7.25;;
75289;SDS011;63883;48.996;20.804;2023-03-20T04:05:25;13.68;;;6.95;;
75289;SDS011;63883;48.996;20.804;2023-03-20T04:07:57;14.18;;;7.07;;
75289;SDS011;63883;48.996;20.804;2023-03-20T04:10:24;14.13;;;7.20;;
75289;SDS011;63883;48.996;20.804;2023-03-20T04:12:50;19.38;;;7.40;;
75289;SDS011;63883;48.996;20.804;2023-03-20T04:15:16;15.38;;;6.53;;
75289;SDS011;63883;48.996;20.804;2023-03-20T04:17:42;13.88;;;7.07;;
75289;SDS011;63883;48.996;20.804;2023-03-20T04:20:09;15.43;;;7.18;;
75289;SDS011;63883;48.996;20.804;2023-03-20T04:22:36;15.77;;;7.55;;
75289;SDS011;63883;48.996;20.804;2023-03-20T04:25:03;11.93;;;6.97;;
75289;SDS011;63883;48.996;20.804;2023-03-20T04:27:30;12.45;;;6.88;;
75289;SDS011;63883;48.996;20.804;2023-03-20T04:29:56;13.43;;;7.20;;
75289;SDS011;63883;48.996;20.804;2023-03-20T04:32:22;13.88;;;7.47;;
75289;SDS011;63883;48.996;20.804;2023-03-20T04:34:48;14.82;;;8.20;;
75289;SDS011;63883;48.996;20.804;2023-03-20T04:37:13;13.55;;;8.00;;
75289;SDS011;63883;48.996;20.804;2023-03-20T04:39:39;12.77;;;7.13;;
75289;SDS011;63883;48.996;20.804;2023-03-20T04:42:07;14.43;;;7.07;;
75289;SDS011;63883;48.996;20.804;2023-03-20T04:44:33;12.55;;;7.38;;
75289;SDS011;63883;48.996;20.804;2023-03-20T04:46:59;12.55;;;6.60;;
75289;SDS011;63883;48.996;20.804;2023-03-20T04:49:25;15.95;;;6.88;;
75289;SDS011;63883;48.996;20.804;2023-03-20T04:51:51;13.82;;;7.28;;
75289;SDS011;63883;48.996;20.804;2023-03-20T04:54:17;14.38;;;7.70;;
75289;SDS011;63883;48.996;20.804;2023-03-20T04:56:43;14.50;;;7.20;;
75289;SDS011;63883;48.996;20.804;2023-03-20T04:59:09;15.77;;;7.43;;
75289;SDS011;63883;48.996;20.804;2023-03-20T05:01:35;15.15;;;7.22;;
75289;SDS011;63883;48.996;20.804;2023-03-20T05:04:01;15.65;;;7.65;;
75289;SDS011;63883;48.996;20.804;2023-03-20T05:06:27;14.38;;;7.05;;
75289;SDS011;63883;48.996;20.804;2023-03-20T05:08:53;12.95;;;6.70;;
75289;SDS011;63883;48.996;20.804;2023-03-20T05:11:19;12.20;;;6.53;;
75289;SDS011;63883;48.996;20.804;2023-03-20T05:13:45;10.90;;;6.45;;
75289;SDS011;63883;48.996;20.804;2023-03-20T05:16:10;15.95;;;7.32;;
75289;SDS011;63883;48.996;20.804;2023-03-20T05:18:37;13.88;;;6.90;;
75289;SDS011;63883;48.996;20.804;2023-03-20T05:21:02;12.10;;;6.43;;
75289;SDS011;63883;48.996;20.804;2023-03-20T05:23:29;11.43;;;6.60;;
75289;SDS011;63883;48.996;20.804;2023-03-20T05:25:54;12.30;;;6.60;;
75289;SDS011;63883;48.996;20.804;2023-03-20T05:28:20;13.40;;;7.05;;
75289;SDS011;63883;48.996;20.804;2023-03-20T05:30:46;11.70;;;6.70;;
75289;SDS011;63883;48.996;20.804;2023-03-20T05:33:12;12.70;;;7.03;;
75289;SDS011;63883;48.996;20.804;2023-03-20T05:35:37;13.18;;;7.38;;
75289;SDS011;63883;48.996;20.804;2023-03-20T05:38:03;12.60;;;7.50;;
75289;SDS011;63883;48.996;20.804;2023-03-20T05:40:29;12.23;;;6.90;;
75289;SDS011;63883;48.996;20.804;2023-03-20T05:42:55;11.57;;;6.35;;
75289;SDS011;63883;48.996;20.804;2023-03-20T05:45:20;12.57;;;6.35;;
75289;SDS011;63883;48.996;20.804;2023-03-20T05:47:46;11.38;;;5.88;;
75289;SDS011;63883;48.996;20.804;2023-03-20T05:50:12;10.05;;;5.90;;
75289;SDS011;63883;48.996;20.804;2023-03-20T05:52:38;11.27;;;6.50;;
75289;SDS011;63883;48.996;20.804;2023-03-20T05:55:03;13.35;;;7.95;;
75289;SDS011;63883;48.996;20.804;2023-03-20T05:57:30;13.32;;;8.05;;
75289;SDS011;63883;48.996;20.804;2023-03-20T05:59:56;22.45;;;9.82;;
75289;SDS011;63883;48.996;20.804;2023-03-20T06:02:22;18.55;;;9.52;;
75289;SDS011;63883;48.996;20.804;2023-03-20T06:04:47;14.82;;;9.05;;
75289;SDS011;63883;48.996;20.804;2023-03-20T06:07:13;15.50;;;8.32;;
75289;SDS011;63883;48.996;20.804;2023-03-20T06:09:39;14.93;;;8.05;;
75289;SDS011;63883;48.996;20.804;2023-03-20T06:12:06;18.02;;;8.98;;
75289;SDS011;63883;48.996;20.804;2023-03-20T06:14:31;14.48;;;8.48;;
75289;SDS011;63883;48.996;20.804;2023-03-20T06:16:57;15.32;;;8.45;;
75289;SDS011;63883;48.996;20.804;2023-03-20T06:19:24;15.45;;;8.73;;
75289;SDS011;63883;48.996;20.804;2023-03-20T06:21:50;16.08;;;8.15;;
75289;SDS011;63883;48.996;20.804;2023-03-20T06:24:16;15.25;;;8.15;;
75289;SDS011;63883;48.996;20.804;2023-03-20T06:26:42;13.20;;;8.13;;
75289;SDS011;63883;48.996;20.804;2023-03-20T06:29:08;14.77;;;8.38;;
75289;SDS011;63883;48.996;20.804;2023-03-20T06:31:34;13.95;;;7.68;;
75289;SDS011;63883;48.996;20.804;2023-03-20T06:33:59;14.27;;;7.93;;
75289;SDS011;63883;48.996;20.804;2023-03-20T06:36:25;15.80;;;8.00;;
75289;SDS011;63883;48.996;20.804;2023-03-20T06:38:51;12.98;;;7.30;;
75289;SDS011;63883;48.996;20.804;2023-03-20T06:41:16;15.07;;;7.47;;
75289;SDS011;63883;48.996;20.804;2023-03-20T06:43:42;12.60;;;7.03;;
75289;SDS011;63883;48.996;20.804;2023-03-20T06:46:08;12.02;;;6.82;;
75289;SDS011;63883;48.996;20.804;2023-03-20T06:48:34;11.98;;;7.60;;
75289;SDS011;63883;48.996;20.804;2023-03-20T06:51:00;15.35;;;7.70;;
75289;SDS011;63883;48.996;20.804;2023-03-20T06:53:26;12.00;;;7.00;;
75289;SDS011;63883;48.996;20.804;2023-03-20T06:55:52;14.45;;;7.75;;
75289;SDS011;63883;48.996;20.804;2023-03-20T06:58:18;12.20;;;7.75;;
75289;SDS011;63883;48.996;20.804;2023-03-20T07:00:45;16.00;;;9.23;;
75289;SDS011;63883;48.996;20.804;2023-03-20T07:03:10;17.00;;;9.68;;
75289;SDS011;63883;48.996;20.804;2023-03-20T07:05:37;17.13;;;8.77;;
75289;SDS011;63883;48.996;20.804;2023-03-20T07:08:04;13.75;;;8.93;;
75289;SDS011;63883;48.996;20.804;2023-03-20T07:10:31;18.77;;;10.43;;
75289;SDS011;63883;48.996;20.804;2023-03-20T07:12:58;16.40;;;9.90;;
75289;SDS011;63883;48.996;20.804;2023-03-20T07:15:24;17.70;;;9.88;;
75289;SDS011;63883;48.996;20.804;2023-03-20T07:17:51;17.48;;;9.00;;
75289;SDS011;63883;48.996;20.804;2023-03-20T07:20:17;18.85;;;9.57;;
75289;SDS011;63883;48.996;20.804;2023-03-20T07:22:43;16.38;;;9.57;;
75289;SDS011;63883;48.996;20.804;2023-03-20T07:25:09;19.90;;;11.10;;
75289;SDS011;63883;48.996;20.804;2023-03-20T07:27:35;17.17;;;9.63;;
75289;SDS011;63883;48.996;20.804;2023-03-20T07:30:03;19.17;;;10.40;;
75289;SDS011;63883;48.996;20.804;2023-03-20T07:32:29;14.57;;;8.52;;
75289;SDS011;63883;48.996;20.804;2023-03-20T07:34:55;16.30;;;9.07;;
75289;SDS011;63883;48.996;20.804;2023-03-20T07:37:21;15.45;;;8.73;;
75289;SDS011;63883;48.996;20.804;2023-03-20T07:39:47;14.70;;;8.10;;
75289;SDS011;63883;48.996;20.804;2023-03-20T07:42:12;13.35;;;7.35;;
75289;SDS011;63883;48.996;20.804;2023-03-20T07:44:38;14.02;;;8.32;;
75289;SDS011;63883;48.996;20.804;2023-03-20T07:47:04;11.82;;;7.38;;
75289;SDS011;63883;48.996;20.804;2023-03-20T07:49:30;14.52;;;8.00;;
75289;SDS011;63883;48.996;20.804;2023-03-20T07:51:56;13.20;;;7.32;;
75289;SDS011;63883;48.996;20.804;2023-03-20T07:54:22;12.65;;;7.65;;
75289;SDS011;63883;48.996;20.804;2023-03-20T07:56:48;14.35;;;7.63;;
75289;SDS011;63883;48.996;20.804;2023-03-20T07:59:15;11.85;;;7.00;;
75289;SDS011;63883;48.996;20.804;2023-03-20T08:01:41;11.38;;;7.05;;
75289;SDS011;63883;48.996;20.804;2023-03-20T08:04:07;12.10;;;7.28;;
75289;SDS011;63883;48.996;20.804;2023-03-20T08:06:33;12.07;;;6.85;;
75289;SDS011;63883;48.996;20.804;2023-03-20T08:08:59;12.07;;;7.30;;
75289;SDS011;63883;48.996;20.804;2023-03-20T08:11:25;12.50;;;7.60;;
75289;SDS011;63883;48.996;20.804;2023-03-20T08:13:51;10.88;;;6.78;;
75289;SDS011;63883;48.996;20.804;2023-03-20T08:16:16;12.10;;;6.35;;
75289;SDS011;63883;48.996;20.804;2023-03-20T08:18:42;12.02;;;6.85;;
75289;SDS011;63883;48.996;20.804;2023-03-20T08:21:08;10.95;;;6.30;;
75289;SDS011;63883;48.996;20.804;2023-03-20T08:23:33;11.73;;;6.57;;
75289;SDS011;63883;48.996;20.804;2023-03-20T08:25:59;10.48;;;6.63;;
75289;SDS011;63883;48.996;20.804;2023-03-20T08:28:25;11.25;;;6.45;;
75289;SDS011;63883;48.996;20.804;2023-03-20T08:30:51;11.07;;;6.45;;
75289;SDS011;63883;48.996;20.804;2023-03-20T08:33:17;10.07;;;6.53;;
75289;SDS011;63883;48.996;20.804;2023-03-20T08:35:56;11.07;;;6.28;;
75289;SDS011;63883;48.996;20.804;2023-03-20T08:38:23;11.02;;;6.65;;
75289;SDS011;63883;48.996;20.804;2023-03-20T08:40:49;10.20;;;6.28;;
75289;SDS011;63883;48.996;20.804;2023-03-20T08:43:15;8.50;;;5.68;;
75289;SDS011;63883;48.996;20.804;2023-03-20T08:45:41;8.73;;;6.10;;
75289;SDS011;63883;48.996;20.804;2023-03-20T08:48:07;8.05;;;6.03;;
75289;SDS011;63883;48.996;20.804;2023-03-20T08:50:33;9.00;;;5.60;;
75289;SDS011;63883;48.996;20.804;2023-03-20T08:52:59;9.23;;;5.78;;
75289;SDS011;63883;48.996;20.804;2023-03-20T08:55:25;10.07;;;6.63;;
75289;SDS011;63883;48.996;20.804;2023-03-20T08:57:51;8.02;;;5.63;;
75289;SDS011;63883;48.996;20.804;2023-03-20T09:00:18;8.05;;;5.43;;
75289;SDS011;63883;48.996;20.804;2023-03-20T09:02:45;8.52;;;5.68;;
75289;SDS011;63883;48.996;20.804;2023-03-20T09:05:10;9.50;;;6.20;;
75289;SDS011;63883;48.996;20.804;2023-03-20T09:07:36;10.93;;;6.30;;
75289;SDS011;63883;48.996;20.804;2023-03-20T09:10:03;8.57;;;5.75;;
75289;SDS011;63883;48.996;20.804;2023-03-20T09:12:29;8.88;;;6.07;;
75289;SDS011;63883;48.996;20.804;2023-03-20T09:14:57;8.50;;;5.25;;
75289;SDS011;63883;48.996;20.804;2023-03-20T09:17:23;9.65;;;6.72;;
75289;SDS011;63883;48.996;20.804;2023-03-20T09:19:49;7.85;;;5.80;;
75289;SDS011;63883;48.996;20.804;2023-03-20T09:22:15;8.02;;;5.25;;
75289;SDS011;63883;48.996;20.804;2023-03-20T09:24:43;7.93;;;4.78;;
75289;SDS011;63883;48.996;20.804;2023-03-20T09:27:10;6.63;;;4.80;;
75289;SDS011;63883;48.996;20.804;2023-03-20T09:29:38;7.40;;;4.95;;
75289;SDS011;63883;48.996;20.804;2023-03-20T09:32:05;6.47;;;4.90;;
75289;SDS011;63883;48.996;20.804;2023-03-20T09:34:32;6.88;;;4.43;;
75289;SDS011;63883;48.996;20.804;2023-03-20T09:36:58;5.03;;;3.80;;
75289;SDS011;63883;48.996;20.804;2023-03-20T09:39:23;4.75;;;3.65;;
75289;SDS011;63883;48.996;20.804;2023-03-20T09:41:49;5.20;;;4.28;;
75289;SDS011;63883;48.996;20.804;2023-03-20T09:49:52;5.22;;;4.30;;
75289;SDS011;63883;48.996;20.804;2023-03-20T09:52:39;5.80;;;4.68;;
75289;SDS011;63883;48.996;20.804;2023-03-20T09:55:13;7.15;;;4.32;;
75289;SDS011;63883;48.996;20.804;2023-03-20T09:57:44;5.75;;;4.75;;
75289;SDS011;63883;48.996;20.804;2023-03-20T10:00:16;7.53;;;4.50;;
75289;SDS011;63883;48.996;20.804;2023-03-20T10:02:52;6.05;;;4.13;;
75289;SDS011;63883;48.996;20.804;2023-03-20T10:05:25;7.88;;;4.95;;
75289;SDS011;63883;48.996;20.804;2023-03-20T10:07:53;5.55;;;4.00;;
75289;SDS011;63883;48.996;20.804;2023-03-20T10:10:22;6.97;;;4.20;;
75289;SDS011;63883;48.996;20.804;2023-03-20T10:18:23;5.30;;;4.13;;
75289;SDS011;63883;48.996;20.804;2023-03-20T10:20:53;5.38;;;4.15;;
75289;SDS011;63883;48.996;20.804;2023-03-20T10:26:25;5.05;;;3.88;;
75289;SDS011;63883;48.996;20.804;2023-03-20T10:31:37;6.10;;;3.83;;
75289;SDS011;63883;48.996;20.804;2023-03-20T10:42:40;5.88;;;4.50;;
75289;SDS011;63883;48.996;20.804;2023-03-20T10:47:56;6.05;;;4.38;;
75289;SDS011;63883;48.996;20.804;2023-03-20T10:50:36;5.40;;;3.90;;
75289;SDS011;63883;48.996;20.804;2023-03-20T10:53:09;5.07;;;3.72;;
75289;SDS011;63883;48.996;20.804;2023-03-20T10:55:45;5.70;;;4.50;;
75289;SDS011;63883;48.996;20.804;2023-03-20T10:58:21;4.93;;;3.90;;
75289;SDS011;63883;48.996;20.804;2023-03-20T11:00:49;4.65;;;3.70;;
75289;SDS011;63883;48.996;20.804;2023-03-20T11:03:16;5.03;;;4.00;;
75289;SDS011;63883;48.996;20.804;2023-03-20T11:05:47;5.22;;;4.03;;
75289;SDS011;63883;48.996;20.804;2023-03-20T11:08:19;5.25;;;3.80;;
75289;SDS011;63883;48.996;20.804;2023-03-20T11:10:51;5.10;;;3.83;;
75289;SDS011;63883;48.996;20.804;2023-03-20T11:16:09;6.28;;;3.83;;
75289;SDS011;63883;48.996;20.804;2023-03-20T11:18:41;5.15;;;3.97;;
75289;SDS011;63883;48.996;20.804;2023-03-20T11:21:09;4.15;;;3.55;;
75289;SDS011;63883;48.996;20.804;2023-03-20T11:23:40;6.00;;;4.30;;
75289;SDS011;63883;48.996;20.804;2023-03-20T11:26:06;4.70;;;3.95;;
75289;SDS011;63883;48.996;20.804;2023-03-20T11:28:46;5.43;;;3.92;;
75289;SDS011;63883;48.996;20.804;2023-03-20T11:31:17;5.63;;;4.38;;
75289;SDS011;63883;48.996;20.804;2023-03-20T11:33:52;5.65;;;4.40;;
75289;SDS011;63883;48.996;20.804;2023-03-20T11:36:35;6.75;;;4.72;;
75289;SDS011;63883;48.996;20.804;2023-03-20T11:39:11;6.57;;;4.60;;
75289;SDS011;63883;48.996;20.804;2023-03-20T11:41:46;5.88;;;4.55;;
75289;SDS011;63883;48.996;20.804;2023-03-20T11:47:03;5.10;;;4.15;;
75289;SDS011;63883;48.996;20.804;2023-03-20T11:49:29;5.18;;;4.03;;
75289;SDS011;63883;48.996;20.804;2023-03-20T11:54:27;5.82;;;4.28;;
75289;SDS011;63883;48.996;20.804;2023-03-20T11:56:57;8.35;;;4.43;;
75289;SDS011;63883;48.996;20.804;2023-03-20T11:59:25;4.75;;;4.15;;
75289;SDS011;63883;48.996;20.804;2023-03-20T12:01:57;5.60;;;4.20;;
75289;SDS011;63883;48.996;20.804;2023-03-20T12:04:28;5.38;;;4.38;;
75289;SDS011;63883;48.996;20.804;2023-03-20T12:07:04;5.88;;;4.53;;
75289;SDS011;63883;48.996;20.804;2023-03-20T12:15:22;5.65;;;4.47;;
75289;SDS011;63883;48.996;20.804;2023-03-20T12:18:02;6.45;;;4.50;;
75289;SDS011;63883;48.996;20.804;2023-03-20T12:23:32;5.60;;;4.40;;
75289;SDS011;63883;48.996;20.804;2023-03-20T12:26:02;6.82;;;4.32;;
75289;SDS011;63883;48.996;20.804;2023-03-20T12:36:37;5.80;;;4.55;;
75289;SDS011;63883;48.996;20.804;2023-03-20T12:39:14;6.38;;;4.68;;
75289;SDS011;63883;48.996;20.804;2023-03-20T13:04:13;5.88;;;4.63;;
75289;SDS011;63883;48.996;20.804;2023-03-20T13:07:01;5.40;;;4.28;;
75289;SDS011;63883;48.996;20.804;2023-03-20T13:24:05;10.00;;;4.70;;
75289;SDS011;63883;48.996;20.804;2023-03-20T13:35:16;5.20;;;4.45;;
75289;SDS011;63883;48.996;20.804;2023-03-20T13:37:47;5.63;;;4.32;;
75289;SDS011;63883;48.996;20.804;2023-03-20T13:40:20;8.25;;;4.70;;
75289;SDS011;63883;48.996;20.804;2023-03-20T13:42:54;5.28;;;4.05;;
75289;SDS011;63883;48.996;20.804;2023-03-20T13:45:38;5.60;;;4.10;;
75289;SDS011;63883;48.996;20.804;2023-03-20T13:48:23;7.35;;;4.20;;
75289;SDS011;63883;48.996;20.804;2023-03-20T13:56:35;6.72;;;4.03;;
75289;SDS011;63883;48.996;20.804;2023-03-20T14:04:39;5.47;;;4.05;;
75289;SDS011;63883;48.996;20.804;2023-03-20T14:09:54;7.55;;;4.00;;
75289;SDS011;63883;48.996;20.804;2023-03-20T14:12:23;6.55;;;4.45;;
75289;SDS011;63883;48.996;20.804;2023-03-20T14:14:57;6.05;;;4.10;;
75289;SDS011;63883;48.996;20.804;2023-03-20T14:17:26;5.82;;;4.20;;
75289;SDS011;63883;48.996;20.804;2023-03-20T14:19:54;6.35;;;3.72;;
75289;SDS011;63883;48.996;20.804;2023-03-20T14:22:22;6.40;;;4.03;;
75289;SDS011;63883;48.996;20.804;2023-03-20T14:27:25;10.15;;;5.53;;
75289;SDS011;63883;48.996;20.804;2023-03-20T14:29:53;7.47;;;5.22;;
75289;SDS011;63883;48.996;20.804;2023-03-20T14:32:21;6.32;;;4.53;;
75289;SDS011;63883;48.996;20.804;2023-03-20T14:40:27;7.60;;;4.50;;
75289;SDS011;63883;48.996;20.804;2023-03-20T14:42:59;7.90;;;5.05;;
75289;SDS011;63883;48.996;20.804;2023-03-20T14:48:14;5.22;;;4.20;;
75289;SDS011;63883;48.996;20.804;2023-03-20T14:50:53;7.47;;;5.53;;
75289;SDS011;63883;48.996;20.804;2023-03-20T14:53:21;6.50;;;3.92;;
75289;SDS011;63883;48.996;20.804;2023-03-20T14:55:50;7.88;;;4.45;;
75289;SDS011;63883;48.996;20.804;2023-03-20T15:01:25;8.75;;;5.93;;
75289;SDS011;63883;48.996;20.804;2023-03-20T15:04:00;8.40;;;6.53;;
75289;SDS011;63883;48.996;20.804;2023-03-20T15:06:31;9.68;;;5.72;;
75289;SDS011;63883;48.996;20.804;2023-03-20T15:08:59;10.75;;;7.15;;
75289;SDS011;63883;48.996;20.804;2023-03-20T15:11:29;12.02;;;7.45;;
75289;SDS011;63883;48.996;20.804;2023-03-20T15:13:56;12.50;;;7.68;;
75289;SDS011;63883;48.996;20.804;2023-03-20T15:16:32;16.10;;;8.85;;
75289;SDS011;63883;48.996;20.804;2023-03-20T15:19:00;25.13;;;12.30;;
75289;SDS011;63883;48.996;20.804;2023-03-20T15:21:27;19.50;;;9.73;;
75289;SDS011;63883;48.996;20.804;2023-03-20T15:24:02;17.50;;;9.18;;
75289;SDS011;63883;48.996;20.804;2023-03-20T15:26:30;15.00;;;8.23;;
75289;SDS011;63883;48.996;20.804;2023-03-20T15:28:59;9.65;;;6.10;;
75289;SDS011;63883;48.996;20.804;2023-03-20T15:31:28;10.98;;;6.78;;
75289;SDS011;63883;48.996;20.804;2023-03-20T15:33:57;8.23;;;5.97;;
75289;SDS011;63883;48.996;20.804;2023-03-20T15:36:25;8.23;;;5.88;;
75289;SDS011;63883;48.996;20.804;2023-03-20T15:39:00;11.02;;;7.30;;
75289;SDS011;63883;48.996;20.804;2023-03-20T15:41:42;19.55;;;12.27;;
75289;SDS011;63883;48.996;20.804;2023-03-20T15:46:38;15.40;;;9.52;;
75289;SDS011;63883;48.996;20.804;2023-03-20T15:49:05;15.65;;;8.80;;
75289;SDS011;63883;48.996;20.804;2023-03-20T15:51:30;9.82;;;6.97;;
75289;SDS011;63883;48.996;20.804;2023-03-20T15:54:00;46.42;;;21.70;;
75289;SDS011;63883;48.996;20.804;2023-03-20T15:56:27;35.92;;;16.92;;
75289;SDS011;63883;48.996;20.804;2023-03-20T15:58:54;22.90;;;10.70;;
75289;SDS011;63883;48.996;20.804;2023-03-20T16:01:21;45.60;;;19.13;;
75289;SDS011;63883;48.996;20.804;2023-03-20T16:03:50;28.75;;;13.52;;
75289;SDS011;63883;48.996;20.804;2023-03-20T16:06:21;26.98;;;12.82;;
75289;SDS011;63883;48.996;20.804;2023-03-20T16:09:05;31.88;;;13.48;;
75289;SDS011;63883;48.996;20.804;2023-03-20T16:11:38;35.33;;;13.93;;
75289;SDS011;63883;48.996;20.804;2023-03-20T16:14:11;30.73;;;13.13;;
75289;SDS011;63883;48.996;20.804;2023-03-20T16:16:40;36.30;;;15.18;;
75289;SDS011;63883;48.996;20.804;2023-03-20T16:19:09;34.65;;;14.25;;
75289;SDS011;63883;48.996;20.804;2023-03-20T16:21:37;29.63;;;13.70;;
75289;SDS011;63883;48.996;20.804;2023-03-20T16:24:06;31.92;;;16.30;;
75289;SDS011;63883;48.996;20.804;2023-03-20T16:26:35;28.23;;;14.77;;
75289;SDS011;63883;48.996;20.804;2023-03-20T16:29:02;25.73;;;14.43;;
75289;SDS011;63883;48.996;20.804;2023-03-20T16:31:33;25.08;;;13.48;;
75289;SDS011;63883;48.996;20.804;2023-03-20T16:34:05;24.08;;;13.02;;
75289;SDS011;63883;48.996;20.804;2023-03-20T16:36:34;14.55;;;8.95;;
75289;SDS011;63883;48.996;20.804;2023-03-20T16:39:09;18.02;;;11.55;;
75289;SDS011;63883;48.996;20.804;2023-03-20T16:41:40;16.95;;;10.02;;
75289;SDS011;63883;48.996;20.804;2023-03-20T16:44:13;13.27;;;8.73;;
75289;SDS011;63883;48.996;20.804;2023-03-20T16:52:23;11.88;;;8.30;;
75289;SDS011;63883;48.996;20.804;2023-03-20T16:54:52;13.43;;;8.45;;
75289;SDS011;63883;48.996;20.804;2023-03-20T16:57:20;14.27;;;9.23;;
75289;SDS011;63883;48.996;20.804;2023-03-20T16:59:46;16.50;;;9.65;;
75289;SDS011;63883;48.996;20.804;2023-03-20T17:04:53;16.70;;;9.68;;
75289;SDS011;63883;48.996;20.804;2023-03-20T17:12:21;18.40;;;10.38;;
75289;SDS011;63883;48.996;20.804;2023-03-20T17:14:49;15.80;;;9.57;;
75289;SDS011;63883;48.996;20.804;2023-03-20T17:17:15;15.93;;;9.88;;
75289;SDS011;63883;48.996;20.804;2023-03-20T17:19:44;16.52;;;10.02;;
75289;SDS011;63883;48.996;20.804;2023-03-20T17:22:13;19.02;;;11.43;;
75289;SDS011;63883;48.996;20.804;2023-03-20T17:24:41;16.75;;;10.77;;
75289;SDS011;63883;48.996;20.804;2023-03-20T17:27:08;18.65;;;12.07;;
75289;SDS011;63883;48.996;20.804;2023-03-20T17:29:36;18.17;;;11.38;;
75289;SDS011;63883;48.996;20.804;2023-03-20T17:32:12;17.50;;;11.43;;
75289;SDS011;63883;48.996;20.804;2023-03-20T17:34:41;20.83;;;13.40;;
75289;SDS011;63883;48.996;20.804;2023-03-20T17:37:14;18.92;;;11.10;;
75289;SDS011;63883;48.996;20.804;2023-03-20T17:39:47;13.32;;;9.00;;